sensor_id;sensor_type;location;lat;lon;timestamp;temperature;humidity
62853;DHT22;49205;44.868;38.140;2023-05-16T00:00:35;14.90;80.00
62853;DHT22;49205;44.868;38.140;2023-05-16T00:03:04;15.00;80.30
62853;DHT22;49205;44.868;38.140;2023-05-16T00:05:33;15.00;80.50
62853;DHT22;49205;44.868;38.140;2023-05-16T00:08:04;15.00;80.90
62853;DHT22;49205;44.868;38.140;2023-05-16T00:10:33;15.00;81.00
62853;DHT22;49205;44.868;38.140;2023-05-16T00:13:02;15.00;81.10
62853;DHT22;49205;44.868;38.140;2023-05-16T00:15:31;15.00;81.20
62853;DHT22;49205;44.868;38.140;2023-05-16T00:18:00;15.00;81.30
62853;DHT22;49205;44.868;38.140;2023-05-16T00:20:29;14.90;81.40
62853;DHT22;49205;44.868;38.140;2023-05-16T00:22:58;14.90;81.40
62853;DHT22;49205;44.868;38.140;2023-05-16T00:25:28;14.90;81.50
62853;DHT22;49205;44.868;38.140;2023-05-16T00:27:57;14.80;81.70
62853;DHT22;49205;44.868;38.140;2023-05-16T00:30:26;14.80;81.80
62853;DHT22;49205;44.868;38.140;2023-05-16T00:32:55;14.80;82.10
62853;DHT22;49205;44.868;38.140;2023-05-16T00:35:25;14.70;82.20
62853;DHT22;49205;44.868;38.140;2023-05-16T00:37:54;14.70;82.40
62853;DHT22;49205;44.868;38.140;2023-05-16T00:40:23;14.70;82.30
62853;DHT22;49205;44.868;38.140;2023-05-16T00:42:52;14.70;82.40
62853;DHT22;49205;44.868;38.140;2023-05-16T00:45:22;14.70;82.70
62853;DHT22;49205;44.868;38.140;2023-05-16T00:47:51;14.60;82.60
62853;DHT22;49205;44.868;38.140;2023-05-16T00:50:20;14.60;82.80
62853;DHT22;49205;44.868;38.140;2023-05-16T00:52:50;14.60;82.70
62853;DHT22;49205;44.868;38.140;2023-05-16T00:55:20;14.50;82.90
62853;DHT22;49205;44.868;38.140;2023-05-16T00:57:49;14.50;83.20
62853;DHT22;49205;44.868;38.140;2023-05-16T01:00:19;14.40;83.30
62853;DHT22;49205;44.868;38.140;2023-05-16T01:02:49;14.40;83.50
62853;DHT22;49205;44.868;38.140;2023-05-16T01:05:20;14.40;83.70
62853;DHT22;49205;44.868;38.140;2023-05-16T01:07:49;14.40;83.80
62853;DHT22;49205;44.868;38.140;2023-05-16T01:10:18;14.40;83.60
62853;DHT22;49205;44.868;38.140;2023-05-16T01:13:16;14.30;83.70
62853;DHT22;49205;44.868;38.140;2023-05-16T01:15:49;14.30;83.90
62853;DHT22;49205;44.868;38.140;2023-05-16T01:18:30;14.30;83.80
62853;DHT22;49205;44.868;38.140;2023-05-16T01:20:58;14.30;83.50
62853;DHT22;49205;44.868;38.140;2023-05-16T01:26:25;14.20;83.70
62853;DHT22;49205;44.868;38.140;2023-05-16T01:28:52;14.10;83.80
62853;DHT22;49205;44.868;38.140;2023-05-16T01:31:22;14.20;84.00
62853;DHT22;49205;44.868;38.140;2023-05-16T01:33:51;14.10;84.10
62853;DHT22;49205;44.868;38.140;2023-05-16T01:36:29;14.10;84.00
62853;DHT22;49205;44.868;38.140;2023-05-16T01:42:09;14.10;84.20
62853;DHT22;49205;44.868;38.140;2023-05-16T01:44:51;14.00;84.20
62853;DHT22;49205;44.868;38.140;2023-05-16T01:47:21;14.00;84.40
62853;DHT22;49205;44.868;38.140;2023-05-16T01:50:02;14.00;84.80
62853;DHT22;49205;44.868;38.140;2023-05-16T01:52:31;13.90;84.80
62853;DHT22;49205;44.868;38.140;2023-05-16T01:55:02;13.90;84.90
62853;DHT22;49205;44.868;38.140;2023-05-16T01:57:32;13.90;85.00
62853;DHT22;49205;44.868;38.140;2023-05-16T02:00:02;13.90;85.20
62853;DHT22;49205;44.868;38.140;2023-05-16T02:02:33;13.90;85.20
62853;DHT22;49205;44.868;38.140;2023-05-16T02:05:03;13.90;85.50
62853;DHT22;49205;44.868;38.140;2023-05-16T02:07:33;13.90;85.70
62853;DHT22;49205;44.868;38.140;2023-05-16T02:10:02;13.90;85.70
62853;DHT22;49205;44.868;38.140;2023-05-16T02:12:31;13.90;85.90
62853;DHT22;49205;44.868;38.140;2023-05-16T02:15:00;13.90;86.10
62853;DHT22;49205;44.868;38.140;2023-05-16T02:17:29;13.90;85.90
62853;DHT22;49205;44.868;38.140;2023-05-16T02:19:58;14.00;86.10
62853;DHT22;49205;44.868;38.140;2023-05-16T02:22:29;14.00;86.40
62853;DHT22;49205;44.868;38.140;2023-05-16T02:25:01;14.20;86.40
62853;DHT22;49205;44.868;38.140;2023-05-16T02:27:30;14.30;86.10
62853;DHT22;49205;44.868;38.140;2023-05-16T02:29:59;14.50;86.10
62853;DHT22;49205;44.868;38.140;2023-05-16T02:32:29;14.80;85.50
62853;DHT22;49205;44.868;38.140;2023-05-16T02:34:58;15.00;84.80
62853;DHT22;49205;44.868;38.140;2023-05-16T02:37:27;15.20;84.00
62853;DHT22;49205;44.868;38.140;2023-05-16T02:39:57;15.30;83.20
62853;DHT22;49205;44.868;38.140;2023-05-16T02:42:26;15.30;83.00
62853;DHT22;49205;44.868;38.140;2023-05-16T02:44:56;15.20;83.10
62853;DHT22;49205;44.868;38.140;2023-05-16T02:47:25;15.10;83.40
62853;DHT22;49205;44.868;38.140;2023-05-16T02:49:55;15.00;83.60
62853;DHT22;49205;44.868;38.140;2023-05-16T02:52:24;15.00;83.90
62853;DHT22;49205;44.868;38.140;2023-05-16T02:54:53;15.00;84.10
62853;DHT22;49205;44.868;38.140;2023-05-16T02:57:23;15.10;84.10
62853;DHT22;49205;44.868;38.140;2023-05-16T02:59:52;15.10;84.00
62853;DHT22;49205;44.868;38.140;2023-05-16T03:02:22;15.10;83.90
62853;DHT22;49205;44.868;38.140;2023-05-16T03:04:51;15.10;83.80
62853;DHT22;49205;44.868;38.140;2023-05-16T03:07:20;15.10;84.00
62853;DHT22;49205;44.868;38.140;2023-05-16T03:09:50;15.10;84.10
62853;DHT22;49205;44.868;38.140;2023-05-16T03:12:19;15.20;84.20
62853;DHT22;49205;44.868;38.140;2023-05-16T03:14:48;15.20;84.30
62853;DHT22;49205;44.868;38.140;2023-05-16T03:17:18;15.30;84.40
62853;DHT22;49205;44.868;38.140;2023-05-16T03:19:47;15.40;84.40
62853;DHT22;49205;44.868;38.140;2023-05-16T03:22:17;15.50;84.30
62853;DHT22;49205;44.868;38.140;2023-05-16T03:24:46;15.60;84.30
62853;DHT22;49205;44.868;38.140;2023-05-16T03:27:16;15.60;84.30
62853;DHT22;49205;44.868;38.140;2023-05-16T03:29:45;15.70;84.20
62853;DHT22;49205;44.868;38.140;2023-05-16T03:32:14;15.70;84.00
62853;DHT22;49205;44.868;38.140;2023-05-16T03:34:43;15.60;84.00
62853;DHT22;49205;44.868;38.140;2023-05-16T03:37:13;15.60;84.20
62853;DHT22;49205;44.868;38.140;2023-05-16T03:39:43;15.70;84.50
62853;DHT22;49205;44.868;38.140;2023-05-16T03:42:12;15.90;84.60
62853;DHT22;49205;44.868;38.140;2023-05-16T03:44:41;16.10;84.50
62853;DHT22;49205;44.868;38.140;2023-05-16T03:47:10;16.30;84.10
62853;DHT22;49205;44.868;38.140;2023-05-16T03:49:40;16.50;83.70
62853;DHT22;49205;44.868;38.140;2023-05-16T03:52:09;16.60;83.50
62853;DHT22;49205;44.868;38.140;2023-05-16T03:54:39;16.70;83.20
62853;DHT22;49205;44.868;38.140;2023-05-16T03:57:08;16.80;83.00
62853;DHT22;49205;44.868;38.140;2023-05-16T03:59:37;16.90;82.80
62853;DHT22;49205;44.868;38.140;2023-05-16T04:02:06;17.00;82.90
62853;DHT22;49205;44.868;38.140;2023-05-16T04:04:35;17.10;82.90
62853;DHT22;49205;44.868;38.140;2023-05-16T04:07:05;17.20;82.90
62853;DHT22;49205;44.868;38.140;2023-05-16T04:09:34;17.30;82.70
62853;DHT22;49205;44.868;38.140;2023-05-16T04:12:03;17.30;82.80
62853;DHT22;49205;44.868;38.140;2023-05-16T04:14:36;17.40;82.80
62853;DHT22;49205;44.868;38.140;2023-05-16T04:17:06;17.50;82.70
62853;DHT22;49205;44.868;38.140;2023-05-16T04:19:35;17.50;82.60
62853;DHT22;49205;44.868;38.140;2023-05-16T04:22:05;17.60;82.80
62853;DHT22;49205;44.868;38.140;2023-05-16T04:24:34;17.70;82.70
62853;DHT22;49205;44.868;38.140;2023-05-16T04:27:03;17.80;82.70
62853;DHT22;49205;44.868;38.140;2023-05-16T04:29:34;17.80;82.60
62853;DHT22;49205;44.868;38.140;2023-05-16T04:32:04;17.90;82.70
62853;DHT22;49205;44.868;38.140;2023-05-16T04:34:34;18.00;82.80
62853;DHT22;49205;44.868;38.140;2023-05-16T04:37:04;18.00;82.50
62853;DHT22;49205;44.868;38.140;2023-05-16T04:39:34;18.10;82.40
62853;DHT22;49205;44.868;38.140;2023-05-16T04:42:04;18.20;82.30
62853;DHT22;49205;44.868;38.140;2023-05-16T04:44:33;18.30;82.30
62853;DHT22;49205;44.868;38.140;2023-05-16T04:47:02;18.50;82.00
62853;DHT22;49205;44.868;38.140;2023-05-16T04:49:32;18.60;81.70
62853;DHT22;49205;44.868;38.140;2023-05-16T04:52:01;18.70;81.00
62853;DHT22;49205;44.868;38.140;2023-05-16T04:54:30;18.80;80.60
62853;DHT22;49205;44.868;38.140;2023-05-16T04:57:00;18.90;80.30
62853;DHT22;49205;44.868;38.140;2023-05-16T04:59:29;18.80;79.90
62853;DHT22;49205;44.868;38.140;2023-05-16T05:01:58;18.80;79.80
62853;DHT22;49205;44.868;38.140;2023-05-16T05:04:28;18.80;79.80
62853;DHT22;49205;44.868;38.140;2023-05-16T05:06:57;18.80;79.80
62853;DHT22;49205;44.868;38.140;2023-05-16T05:09:26;18.80;79.70
62853;DHT22;49205;44.868;38.140;2023-05-16T05:11:56;18.80;80.00
62853;DHT22;49205;44.868;38.140;2023-05-16T05:14:25;18.80;80.00
62853;DHT22;49205;44.868;38.140;2023-05-16T05:16:54;18.90;79.80
62853;DHT22;49205;44.868;38.140;2023-05-16T05:19:23;18.90;80.00
62853;DHT22;49205;44.868;38.140;2023-05-16T05:21:52;19.00;80.30
62853;DHT22;49205;44.868;38.140;2023-05-16T05:24:22;19.10;80.50
62853;DHT22;49205;44.868;38.140;2023-05-16T05:26:51;19.10;80.30
62853;DHT22;49205;44.868;38.140;2023-05-16T05:29:20;19.20;80.00
62853;DHT22;49205;44.868;38.140;2023-05-16T05:31:50;19.30;79.10
62853;DHT22;49205;44.868;38.140;2023-05-16T05:34:19;19.40;78.50
62853;DHT22;49205;44.868;38.140;2023-05-16T05:36:48;19.50;78.10
62853;DHT22;49205;44.868;38.140;2023-05-16T05:39:18;19.60;78.10
62853;DHT22;49205;44.868;38.140;2023-05-16T05:41:47;19.70;77.60
62853;DHT22;49205;44.868;38.140;2023-05-16T05:44:16;19.80;77.10
62853;DHT22;49205;44.868;38.140;2023-05-16T05:46:45;19.90;76.60
62853;DHT22;49205;44.868;38.140;2023-05-16T05:49:14;20.00;76.10
62853;DHT22;49205;44.868;38.140;2023-05-16T05:51:44;20.10;75.80
62853;DHT22;49205;44.868;38.140;2023-05-16T05:54:13;20.20;75.60
62853;DHT22;49205;44.868;38.140;2023-05-16T05:56:42;20.30;75.30
62853;DHT22;49205;44.868;38.140;2023-05-16T05:59:11;20.30;75.30
62853;DHT22;49205;44.868;38.140;2023-05-16T06:01:41;20.50;74.50
62853;DHT22;49205;44.868;38.140;2023-05-16T06:04:11;20.60;73.60
62853;DHT22;49205;44.868;38.140;2023-05-16T06:06:41;20.70;72.60
62853;DHT22;49205;44.868;38.140;2023-05-16T06:09:10;20.80;71.50
62853;DHT22;49205;44.868;38.140;2023-05-16T06:11:41;20.90;71.00
62853;DHT22;49205;44.868;38.140;2023-05-16T06:14:12;20.90;69.50
62853;DHT22;49205;44.868;38.140;2023-05-16T06:16:43;21.00;69.60
62853;DHT22;49205;44.868;38.140;2023-05-16T06:19:12;21.00;69.20
62853;DHT22;49205;44.868;38.140;2023-05-16T06:21:43;21.10;68.50
62853;DHT22;49205;44.868;38.140;2023-05-16T06:24:12;21.20;68.20
62853;DHT22;49205;44.868;38.140;2023-05-16T06:26:42;21.20;67.90
62853;DHT22;49205;44.868;38.140;2023-05-16T06:29:12;21.30;67.10
62853;DHT22;49205;44.868;38.140;2023-05-16T06:31:41;21.40;66.30
62853;DHT22;49205;44.868;38.140;2023-05-16T06:34:11;21.40;65.90
62853;DHT22;49205;44.868;38.140;2023-05-16T06:36:40;21.40;65.20
62853;DHT22;49205;44.868;38.140;2023-05-16T06:39:09;21.40;64.70
62853;DHT22;49205;44.868;38.140;2023-05-16T06:41:38;21.40;63.70
62853;DHT22;49205;44.868;38.140;2023-05-16T06:44:08;21.40;62.90
62853;DHT22;49205;44.868;38.140;2023-05-16T06:46:37;21.40;62.90
62853;DHT22;49205;44.868;38.140;2023-05-16T06:49:07;21.50;62.30
62853;DHT22;49205;44.868;38.140;2023-05-16T06:51:36;21.50;62.80
62853;DHT22;49205;44.868;38.140;2023-05-16T06:54:05;21.60;62.00
62853;DHT22;49205;44.868;38.140;2023-05-16T06:56:35;21.70;61.80
62853;DHT22;49205;44.868;38.140;2023-05-16T06:59:04;21.70;61.60
62853;DHT22;49205;44.868;38.140;2023-05-16T07:01:33;21.80;60.10
62853;DHT22;49205;44.868;38.140;2023-05-16T07:04:02;21.80;60.30
62853;DHT22;49205;44.868;38.140;2023-05-16T07:06:31;21.90;60.50
62853;DHT22;49205;44.868;38.140;2023-05-16T07:09:01;21.90;60.30
62853;DHT22;49205;44.868;38.140;2023-05-16T07:11:30;22.00;60.00
62853;DHT22;49205;44.868;38.140;2023-05-16T07:14:01;22.10;59.90
62853;DHT22;49205;44.868;38.140;2023-05-16T07:16:30;22.20;60.00
62853;DHT22;49205;44.868;38.140;2023-05-16T07:18:59;22.20;60.10
62853;DHT22;49205;44.868;38.140;2023-05-16T07:21:29;22.30;59.20
62853;DHT22;49205;44.868;38.140;2023-05-16T07:23:58;22.30;59.80
62853;DHT22;49205;44.868;38.140;2023-05-16T07:26:27;22.30;60.10
62853;DHT22;49205;44.868;38.140;2023-05-16T07:28:57;22.30;60.20
62853;DHT22;49205;44.868;38.140;2023-05-16T07:31:26;22.30;59.20
62853;DHT22;49205;44.868;38.140;2023-05-16T07:33:55;22.30;59.90
62853;DHT22;49205;44.868;38.140;2023-05-16T07:36:24;22.40;59.70
62853;DHT22;49205;44.868;38.140;2023-05-16T07:38:54;22.40;59.90
62853;DHT22;49205;44.868;38.140;2023-05-16T07:41:23;22.50;59.50
62853;DHT22;49205;44.868;38.140;2023-05-16T07:43:52;22.60;59.30
62853;DHT22;49205;44.868;38.140;2023-05-16T07:46:22;22.60;59.00
62853;DHT22;49205;44.868;38.140;2023-05-16T07:48:51;22.70;58.40
62853;DHT22;49205;44.868;38.140;2023-05-16T07:51:21;22.80;58.10
62853;DHT22;49205;44.868;38.140;2023-05-16T07:53:50;22.90;57.20
62853;DHT22;49205;44.868;38.140;2023-05-16T07:56:19;22.90;56.80
62853;DHT22;49205;44.868;38.140;2023-05-16T07:58:48;22.90;56.70
62853;DHT22;49205;44.868;38.140;2023-05-16T08:01:18;22.90;55.70
62853;DHT22;49205;44.868;38.140;2023-05-16T08:03:47;23.00;54.60
62853;DHT22;49205;44.868;38.140;2023-05-16T08:06:16;23.00;54.70
62853;DHT22;49205;44.868;38.140;2023-05-16T08:08:45;23.10;55.30
62853;DHT22;49205;44.868;38.140;2023-05-16T08:11:14;23.10;54.80
62853;DHT22;49205;44.868;38.140;2023-05-16T08:13:44;23.20;54.20
62853;DHT22;49205;44.868;38.140;2023-05-16T08:16:13;23.20;54.30
62853;DHT22;49205;44.868;38.140;2023-05-16T08:18:42;23.30;54.40
62853;DHT22;49205;44.868;38.140;2023-05-16T08:21:12;23.30;53.70
62853;DHT22;49205;44.868;38.140;2023-05-16T08:23:42;23.40;53.10
62853;DHT22;49205;44.868;38.140;2023-05-16T08:26:11;23.30;54.00
62853;DHT22;49205;44.868;38.140;2023-05-16T08:28:40;23.40;54.20
62853;DHT22;49205;44.868;38.140;2023-05-16T08:31:10;23.30;54.50
62853;DHT22;49205;44.868;38.140;2023-05-16T08:33:39;23.30;53.20
62853;DHT22;49205;44.868;38.140;2023-05-16T08:36:10;23.30;53.70
62853;DHT22;49205;44.868;38.140;2023-05-16T08:38:39;23.30;54.10
62853;DHT22;49205;44.868;38.140;2023-05-16T08:41:08;23.40;52.50
62853;DHT22;49205;44.868;38.140;2023-05-16T08:43:37;23.40;53.10
62853;DHT22;49205;44.868;38.140;2023-05-16T08:46:09;23.40;53.40
62853;DHT22;49205;44.868;38.140;2023-05-16T08:48:39;23.50;53.90
62853;DHT22;49205;44.868;38.140;2023-05-16T08:51:10;23.50;53.60
62853;DHT22;49205;44.868;38.140;2023-05-16T08:53:44;23.50;52.80
62853;DHT22;49205;44.868;38.140;2023-05-16T08:56:13;23.60;53.30
62853;DHT22;49205;44.868;38.140;2023-05-16T08:58:42;23.60;52.30
